createdAt,value
2023-01-24T00:01:18.264Z,10.10
2023-01-24T00:03:46.599Z,10.60
2023-01-24T00:06:15.157Z,10.80
2023-01-24T00:08:43.413Z,10.80
2023-01-24T00:11:12.392Z,10.80
2023-01-24T00:13:40.604Z,10.80
2023-01-24T00:16:20.101Z,11.10
2023-01-24T00:18:48.921Z,10.00
2023-01-24T00:21:23.666Z,4.30
2023-01-24T00:23:53.686Z,3.30
2023-01-24T00:26:22.916Z,1.80
2023-01-24T00:28:52.289Z,1.70
2023-01-24T00:31:20.617Z,1.20
2023-01-24T00:33:49.256Z,1.40
2023-01-24T00:36:21.231Z,1.20
2023-01-24T00:38:49.483Z,0.90
2023-01-24T00:41:17.684Z,0.70
2023-01-24T00:43:46.657Z,0.40
2023-01-24T00:46:15.006Z,0.50
2023-01-24T00:48:45.900Z,0.50
2023-01-24T00:51:15.611Z,0.30
2023-01-24T00:53:44.020Z,0.80
2023-01-24T00:56:12.193Z,0.40
2023-01-24T00:58:40.549Z,0.50
2023-01-24T01:01:08.981Z,0.40
2023-01-24T01:03:38.840Z,0.50
2023-01-24T01:06:09.040Z,0.40
2023-01-24T01:08:37.727Z,0.50
2023-01-24T01:11:06.309Z,0.30
2023-01-24T01:13:34.682Z,0.50
2023-01-24T01:16:07.273Z,0.30
2023-01-24T01:18:36.087Z,0.40
2023-01-24T01:21:04.596Z,0.70
2023-01-24T01:23:33.505Z,1.20
2023-01-24T01:26:02.550Z,1.00
2023-01-24T01:28:30.792Z,0.50
2023-01-24T03:41:04.546Z,2.00
2023-01-24T03:43:33.693Z,2.40
2023-01-24T03:46:01.967Z,2.40
2023-01-24T03:48:40.131Z,1.90
2023-01-24T03:51:28.137Z,2.40
2023-01-24T03:53:56.660Z,2.10
2023-01-24T03:56:28.937Z,2.60
2023-01-24T03:58:59.856Z,3.10
2023-01-24T04:01:30.447Z,2.40
2023-01-24T04:04:08.722Z,2.90
2023-01-24T04:06:36.875Z,3.00
2023-01-24T04:09:06.470Z,2.90
2023-01-24T04:11:35.350Z,3.40
2023-01-24T04:14:09.365Z,3.30
2023-01-24T04:16:40.926Z,3.00
2023-01-24T04:19:17.328Z,2.90
2023-01-24T04:21:45.542Z,2.40
2023-01-24T04:24:14.164Z,2.30
2023-01-24T04:26:44.582Z,2.80
2023-01-24T04:29:17.214Z,2.90
2023-01-24T04:31:46.748Z,2.10
2023-01-24T04:34:36.915Z,2.20
2023-01-24T04:37:05.667Z,2.40
2023-01-24T04:39:33.858Z,2.80
2023-01-24T04:42:11.940Z,3.50
2023-01-24T04:44:40.432Z,4.30
2023-01-24T04:47:10.866Z,2.60
2023-01-24T04:49:40.604Z,2.70
2023-01-24T04:52:12.244Z,2.50
2023-01-24T04:55:01.043Z,2.20
2023-01-24T04:57:30.520Z,2.40
2023-01-24T04:59:58.677Z,2.60
2023-01-24T05:02:33.758Z,2.80
2023-01-24T05:05:03.031Z,2.80
2023-01-24T05:07:31.394Z,3.00
2023-01-24T05:10:03.166Z,2.90
2023-01-24T05:12:31.911Z,3.20
2023-01-24T05:15:02.924Z,3.90
2023-01-24T05:17:31.735Z,4.40
2023-01-24T05:20:00.172Z,4.60
2023-01-24T05:22:29.507Z,3.60
2023-01-24T05:24:57.749Z,3.90
2023-01-24T05:27:26.380Z,4.10
2023-01-24T05:29:58.625Z,3.10
2023-01-24T05:32:27.969Z,3.20
2023-01-24T05:34:56.113Z,3.70
2023-01-24T05:37:24.978Z,3.40
2023-01-24T05:39:53.271Z,3.30
2023-01-24T05:42:21.412Z,4.00
2023-01-24T05:44:51.826Z,3.80
2023-01-24T05:47:20.239Z,4.50
2023-01-24T05:49:49.360Z,4.20
2023-01-24T05:52:22.737Z,3.90
2023-01-24T05:54:53.140Z,4.20
2023-01-24T05:57:31.505Z,4.10
2023-01-24T06:00:19.372Z,4.20
2023-01-24T06:03:11.166Z,4.00
2023-01-24T06:05:39.805Z,4.10
2023-01-24T06:08:10.171Z,4.20
2023-01-24T06:10:39.608Z,4.20
2023-01-24T06:13:13.164Z,4.50
2023-01-24T06:15:41.912Z,4.60
2023-01-24T06:18:15.384Z,5.00
2023-01-24T06:23:21.966Z,6.00
2023-01-24T06:25:50.548Z,5.90
2023-01-24T06:28:18.874Z,5.40
2023-01-24T06:31:42.939Z,4.90
2023-01-24T06:37:15.947Z,4.90
2023-01-24T06:39:52.792Z,5.20
2023-01-24T06:42:22.112Z,6.00
2023-01-24T06:44:50.416Z,5.80
2023-01-24T06:47:18.887Z,5.80
2023-01-24T06:49:47.132Z,4.60
2023-01-24T06:52:15.414Z,5.30
2023-01-24T06:54:43.565Z,4.70
2023-01-24T06:57:11.710Z,6.60
2023-01-24T06:59:40.918Z,6.60
2023-01-24T07:02:11.014Z,5.80
2023-01-24T07:04:39.074Z,6.30
2023-01-24T10:21:41.835Z,23.80
2023-01-24T10:24:22.523Z,8.50
2023-01-24T10:26:52.362Z,6.10
2023-01-24T10:29:28.346Z,11.30
2023-01-24T10:32:05.064Z,8.40
2023-01-24T10:34:43.109Z,24.40
2023-01-24T10:37:17.184Z,20.50
2023-01-24T10:39:46.045Z,6.90
2023-01-24T10:42:33.332Z,6.00
2023-01-24T10:45:24.708Z,7.80
2023-01-24T10:48:32.569Z,5.20
2023-01-24T10:51:21.768Z,17.20
2023-01-24T10:53:56.062Z,137.40
2023-01-24T10:56:24.439Z,200.20
2023-01-24T10:59:13.747Z,118.50
2023-01-24T11:01:48.192Z,137.30
2023-01-24T11:04:26.689Z,13.00
2023-01-24T11:06:54.965Z,134.60
2023-01-24T11:09:30.939Z,81.70
2023-01-24T11:11:59.935Z,68.00
2023-01-24T11:14:33.824Z,107.00
2023-01-24T11:17:02.618Z,41.70
2023-01-24T11:19:40.304Z,40.80
2023-01-24T11:22:23.436Z,24.80
2023-01-24T11:24:53.847Z,104.30
2023-01-24T11:27:33.626Z,149.80
2023-01-24T11:30:14.350Z,31.20
2023-01-24T11:33:04.820Z,84.80
2023-01-24T11:35:38.718Z,42.70
2023-01-24T11:38:42.519Z,33.50
2023-01-24T11:41:11.857Z,32.40
2023-01-24T11:43:43.422Z,45.90
2023-01-24T11:46:25.904Z,44.90
2023-01-24T11:49:00.238Z,21.60
2023-01-24T11:54:09.134Z,74.10
2023-01-24T11:57:02.049Z,26.20
2023-01-24T11:59:42.908Z,20.70
2023-01-24T12:02:19.693Z,21.20
2023-01-24T12:05:06.350Z,17.30
2023-01-24T12:08:12.780Z,17.60
2023-01-24T12:11:38.453Z,25.90
2023-01-24T12:14:21.886Z,457.80
2023-01-24T12:17:32.069Z,289.30
2023-01-24T12:20:31.030Z,224.70
2023-01-24T12:23:22.360Z,75.60
2023-01-24T12:25:58.397Z,126.40
2023-01-24T12:28:44.770Z,57.50
2023-01-24T12:31:16.970Z,46.10
2023-01-24T12:33:51.164Z,115.00
2023-01-24T12:36:45.196Z,114.60
2023-01-24T12:39:20.696Z,37.90
2023-01-24T12:42:06.100Z,127.20
2023-01-24T12:44:43.034Z,40.80
2023-01-24T12:47:11.338Z,119.10
2023-01-24T12:50:05.543Z,95.60
2023-01-24T12:52:49.149Z,65.60
2023-01-24T12:55:26.366Z,49.00
2023-01-24T12:58:02.468Z,36.10
2023-01-24T13:00:42.878Z,64.90
2023-01-24T16:30:27.797Z,17.90
2023-01-24T16:32:56.342Z,18.60
2023-01-24T16:35:25.236Z,18.60
2023-01-24T16:37:53.709Z,17.70
2023-01-24T16:40:22.406Z,17.90
2023-01-24T16:42:50.664Z,16.40
2023-01-24T16:45:25.340Z,18.00
2023-01-24T16:47:55.156Z,16.90
2023-01-24T16:50:27.970Z,15.10
2023-01-24T16:52:59.890Z,14.10
2023-01-24T16:55:29.783Z,15.00
2023-01-24T16:58:00.893Z,10.10
2023-01-24T17:00:30.506Z,19.10
2023-01-24T17:03:00.114Z,12.20
2023-01-24T17:05:30.274Z,16.50
2023-01-24T17:08:02.123Z,47.80
2023-01-24T17:10:32.725Z,13.70
2023-01-24T17:13:21.283Z,11.80
2023-01-24T17:15:53.309Z,9.20
2023-01-24T17:18:25.541Z,10.10
2023-01-24T17:20:56.987Z,14.20
2023-01-24T17:23:44.875Z,21.80
2023-01-24T17:26:52.349Z,31.30
2023-01-24T17:29:30.839Z,24.00
2023-01-24T17:31:59.148Z,23.60
2023-01-24T17:34:27.614Z,12.10
2023-01-24T17:36:59.861Z,12.30
2023-01-24T17:39:50.283Z,11.90
2023-01-24T17:42:19.345Z,25.90
2023-01-24T17:44:47.993Z,17.00
2023-01-24T17:47:17.274Z,15.30
2023-01-24T17:49:50.355Z,19.40
2023-01-24T17:52:27.395Z,17.10
2023-01-24T17:54:57.769Z,15.10
2023-01-24T17:57:32.188Z,23.70
2023-01-24T18:00:15.842Z,14.60
2023-01-24T18:05:17.305Z,14.20
2023-01-24T18:07:45.838Z,13.90
2023-01-24T18:10:15.308Z,12.00
2023-01-24T18:12:45.044Z,12.70
2023-01-24T18:15:14.198Z,12.60
2023-01-24T18:17:42.638Z,12.20
2023-01-24T18:20:24.550Z,12.70
2023-01-24T18:23:04.207Z,14.10
2023-01-24T18:25:43.570Z,25.90
2023-01-24T18:29:19.387Z,12.00
2023-01-24T18:32:01.537Z,12.60
2023-01-24T18:34:35.509Z,12.40
2023-01-24T18:37:05.461Z,13.60
2023-01-24T18:39:38.269Z,14.00
2023-01-24T18:42:08.351Z,14.00
2023-01-24T18:44:37.112Z,13.20
2023-01-24T18:47:05.521Z,12.90
2023-01-24T18:52:17.654Z,12.90
2023-01-24T18:54:58.305Z,11.40
2023-01-24T18:57:29.197Z,12.30
2023-01-24T18:59:57.328Z,12.10
2023-01-24T21:59:43.600Z,15.60
2023-01-24T22:02:17.883Z,16.50
2023-01-24T22:04:45.795Z,15.70
2023-01-24T22:07:17.290Z,16.30
2023-01-24T22:09:44.730Z,15.20
2023-01-24T22:12:14.723Z,16.50
2023-01-24T22:14:42.952Z,15.70
2023-01-24T22:17:18.808Z,17.40
2023-01-24T22:19:53.343Z,17.10
2023-01-24T22:22:29.922Z,16.80
2023-01-24T22:25:01.078Z,17.00
2023-01-24T22:27:28.233Z,15.80
2023-01-24T22:29:55.309Z,16.90
2023-01-24T22:32:22.657Z,20.30
2023-01-24T22:34:49.933Z,20.60
2023-01-24T22:37:30.359Z,17.00
2023-01-24T22:39:57.470Z,17.00
2023-01-24T22:42:24.370Z,12.20
2023-01-24T22:44:51.242Z,13.60
2023-01-24T22:47:18.987Z,12.50
2023-01-24T22:49:45.888Z,10.70
2023-01-24T22:52:12.896Z,10.30
2023-01-24T22:54:40.520Z,9.60
2023-01-24T22:57:07.612Z,8.70
2023-01-24T22:59:35.042Z,10.10
2023-01-24T23:02:03.550Z,10.90
2023-01-24T23:04:30.986Z,10.40
2023-01-24T23:06:57.917Z,9.10
2023-01-24T23:09:25.040Z,9.40
2023-01-24T23:11:51.712Z,8.20
2023-01-24T23:14:37.174Z,8.90
2023-01-24T23:17:04.768Z,9.20
2023-01-24T23:20:11.497Z,8.40
2023-01-24T23:22:38.252Z,9.40
2023-01-24T23:25:05.788Z,10.00
2023-01-24T23:27:34.702Z,9.20
2023-01-24T23:30:18.838Z,8.30
2023-01-24T23:32:46.505Z,8.00
2023-01-24T23:35:13.802Z,9.00
2023-01-24T23:37:40.687Z,9.50
2023-01-24T23:40:08.866Z,8.90
2023-01-24T23:42:35.921Z,8.70
2023-01-24T23:45:04.582Z,9.50
2023-01-24T23:47:32.295Z,8.60
2023-01-24T23:49:59.114Z,8.80
2023-01-24T23:52:25.926Z,9.60
2023-01-24T23:54:52.736Z,8.90
2023-01-24T23:57:19.668Z,9.60
2023-01-24T23:59:46.527Z,9.20
